Central City, Kentucky
Current Conditions -  °F | °C
As of 11:35 PM on Saturday 20 Dec 2014 (Local Time) from K2I0 Reporting Station
Clear Clear  
Wind Chill: 27°   Ceiling: Unl
Heat Index: 27°   Visibility: 7mi
Dew Point: 27°   Wind: 0mph
Humidity: 99%   Direction: NA
Pressure: 30.29"   Gusts: NA
Location:  37.29°N, 87.12°W
Report Text: K2I0 210535Z AUTO 00000KT 7SM CLR M03/M03 A3029 RMK AO2 T10271029
Loading
Personal Weather Stations






























Interactive Weather Map New forecast layout! Learn more

10-Day Weather Forecast

Advertisements
Track Severe Weather on mobile